createdAt,value
2018-05-09T00:01:59.705Z,31.43
2018-05-09T00:04:31.170Z,31.43
2018-05-09T00:07:04.510Z,31.43
2018-05-09T00:09:39.065Z,31.41
2018-05-09T00:12:11.119Z,31.38
2018-05-09T00:14:43.535Z,31.42
2018-05-09T00:17:17.430Z,31.45
2018-05-09T00:19:49.259Z,31.42
2018-05-09T00:22:20.915Z,31.49
2018-05-09T00:24:52.327Z,31.44
2018-05-09T00:27:24.509Z,31.48
2018-05-09T00:29:57.347Z,31.53
2018-05-09T00:32:28.742Z,31.56
2018-05-09T00:35:00.420Z,31.56
2018-05-09T00:37:32.126Z,31.58
2018-05-09T00:40:03.686Z,31.53
2018-05-09T00:42:35.030Z,31.58
2018-05-09T00:45:08.669Z,31.63
2018-05-09T00:47:40.122Z,31.69
2018-05-09T00:50:11.561Z,31.61
2018-05-09T00:52:43.488Z,31.62
2018-05-09T00:55:14.856Z,31.62
2018-05-09T00:57:47.195Z,31.48
2018-05-09T01:00:19.170Z,31.45
2018-05-09T01:02:50.521Z,31.44
2018-05-09T01:05:24.941Z,31.48
2018-05-09T01:07:56.797Z,31.39
2018-05-09T01:10:28.986Z,31.45
2018-05-09T01:13:02.964Z,31.47
2018-05-09T01:15:36.555Z,31.45
2018-05-09T01:18:07.915Z,31.33
2018-05-09T01:20:41.999Z,31.34
2018-05-09T01:23:19.443Z,31.41
2018-05-09T01:25:51.001Z,31.40
2018-05-09T01:28:23.938Z,31.38
2018-05-09T01:30:55.206Z,31.41
2018-05-09T01:33:29.980Z,31.44
2018-05-09T01:36:03.492Z,31.43
2018-05-09T01:38:35.923Z,31.40
2018-05-09T01:41:07.343Z,31.28
2018-05-09T01:43:39.012Z,31.27
2018-05-09T01:46:10.559Z,31.28
2018-05-09T01:48:41.572Z,31.27
2018-05-09T01:51:12.932Z,31.22
2018-05-09T01:56:36.211Z,31.23
2018-05-09T01:59:07.489Z,31.13
2018-05-09T02:01:39.808Z,31.13
2018-05-09T02:04:11.401Z,31.13
2018-05-09T02:06:42.751Z,31.10
2018-05-09T02:09:14.432Z,31.09
2018-05-09T02:11:46.756Z,31.11
2018-05-09T02:14:18.897Z,31.07
2018-05-09T02:16:50.681Z,31.01
2018-05-09T02:19:22.916Z,30.96
2018-05-09T02:21:55.645Z,30.89
2018-05-09T02:24:27.015Z,30.88
2018-05-09T02:26:58.832Z,30.83
2018-05-09T02:29:30.744Z,30.80
2018-05-09T02:32:02.211Z,30.80
2018-05-09T02:34:34.731Z,30.81
2018-05-09T02:37:09.289Z,30.88
2018-05-09T02:39:40.708Z,30.93
2018-05-09T02:42:12.189Z,30.90
2018-05-09T02:44:46.091Z,30.89
2018-05-09T02:47:20.622Z,30.89
2018-05-09T02:49:52.188Z,30.83
2018-05-09T02:52:24.562Z,30.82
2018-05-09T02:54:56.274Z,30.75
2018-05-09T02:57:27.654Z,30.68
2018-05-09T02:59:59.682Z,30.62
2018-05-09T03:02:31.963Z,30.60
2018-05-09T03:05:03.757Z,30.55
2018-05-09T03:07:35.561Z,30.51
2018-05-09T03:10:07.184Z,30.41
2018-05-09T03:12:39.206Z,30.50
2018-05-09T03:15:10.465Z,30.53
2018-05-09T03:17:44.241Z,30.49
2018-05-09T03:20:15.621Z,30.44
2018-05-09T03:22:46.893Z,30.39
2018-05-09T03:25:19.732Z,30.37
2018-05-09T03:27:51.545Z,30.32
2018-05-09T03:30:23.892Z,30.31
2018-05-09T03:32:55.230Z,30.26
2018-05-09T03:35:26.507Z,30.26
2018-05-09T03:37:58.318Z,30.28
2018-05-09T03:40:29.714Z,30.11
2018-05-09T03:43:01.061Z,30.07
2018-05-09T03:45:33.715Z,30.11
2018-05-09T03:48:06.530Z,30.25
2018-05-09T03:50:38.930Z,30.29
2018-05-09T03:53:11.170Z,30.31
2018-05-09T03:55:42.843Z,30.26
2018-05-09T03:58:14.281Z,30.10
2018-05-09T04:00:45.513Z,29.99
2018-05-09T04:04:30.212Z,29.98
2018-05-09T04:09:46.634Z,29.78
2018-05-09T04:12:17.953Z,29.90
2018-05-09T04:14:49.471Z,30.03
2018-05-09T04:17:20.942Z,30.13
2018-05-09T04:19:53.342Z,30.25
2018-05-09T04:22:27.101Z,30.40
2018-05-09T04:24:58.376Z,30.53
2018-05-09T04:27:29.724Z,30.63
2018-05-09T04:30:01.039Z,30.64
2018-05-09T04:32:34.932Z,30.69
2018-05-09T04:35:08.147Z,30.79
2018-05-09T04:37:39.449Z,30.94
2018-05-09T04:40:11.594Z,31.09
2018-05-09T04:42:42.947Z,31.19
2018-05-09T04:45:17.593Z,31.10
2018-05-09T04:47:48.983Z,31.15
2018-05-09T04:50:20.299Z,31.24
2018-05-09T04:52:51.601Z,31.40
2018-05-09T04:55:23.081Z,31.55
2018-05-09T04:57:55.433Z,31.93
2018-05-09T05:00:26.872Z,32.23
2018-05-09T05:02:58.233Z,32.38
2018-05-09T05:05:29.876Z,32.49
2018-05-09T05:08:04.381Z,32.61
2018-05-09T05:10:39.629Z,32.76
2018-05-09T05:13:21.540Z,33.05
2018-05-09T05:15:52.993Z,33.34
2018-05-09T05:18:24.654Z,33.57
2018-05-09T05:20:55.978Z,33.78
2018-05-09T05:23:28.090Z,33.93
2018-05-09T05:25:59.617Z,33.87
2018-05-09T05:28:31.221Z,34.06
2018-05-09T05:31:02.541Z,34.26
2018-05-09T05:33:33.898Z,34.58
2018-05-09T05:36:05.338Z,34.90
2018-05-09T05:38:36.610Z,35.13
2018-05-09T05:41:07.898Z,35.28
2018-05-09T05:43:39.234Z,35.50
2018-05-09T05:46:11.349Z,35.74
2018-05-09T05:48:42.953Z,35.90
2018-05-09T05:51:15.168Z,36.09
2018-05-09T05:53:46.570Z,36.26
2018-05-09T05:56:18.780Z,36.45
2018-05-09T05:58:50.205Z,36.51
2018-05-09T06:01:22.288Z,36.59
2018-05-09T06:03:53.686Z,36.61
2018-05-09T06:06:26.052Z,36.58
2018-05-09T06:08:57.661Z,36.48
2018-05-09T06:11:28.175Z,36.30
2018-05-09T06:13:59.953Z,36.30
2018-05-09T06:16:31.406Z,36.47
2018-05-09T06:19:02.832Z,36.77
2018-05-09T06:21:34.056Z,36.93
2018-05-09T06:24:06.393Z,37.14
2018-05-09T06:26:37.379Z,37.25
2018-05-09T06:29:11.269Z,37.14
2018-05-09T06:31:43.949Z,36.86
2018-05-09T06:34:17.478Z,36.60
2018-05-09T06:36:49.287Z,36.41
2018-05-09T06:39:21.676Z,36.35
2018-05-09T06:41:53.005Z,36.55
2018-05-09T06:44:24.364Z,36.54
2018-05-09T06:46:55.844Z,36.44
2018-05-09T06:49:28.105Z,36.47
2018-05-09T06:51:59.455Z,36.61
2018-05-09T06:54:30.763Z,36.77
2018-05-09T06:57:02.123Z,36.93
2018-05-09T06:59:33.651Z,37.11
2018-05-09T07:02:05.014Z,37.23
2018-05-09T07:04:36.744Z,37.52
2018-05-09T07:07:08.843Z,37.84
2018-05-09T07:09:41.166Z,38.02
2018-05-09T07:12:13.107Z,38.26
2018-05-09T07:14:44.553Z,38.44
2018-05-09T07:17:15.847Z,38.67
2018-05-09T07:19:47.621Z,38.83
2018-05-09T07:22:19.878Z,38.99
2018-05-09T07:24:51.339Z,39.15
2018-05-09T07:27:23.725Z,39.43
2018-05-09T07:29:55.928Z,39.78
2018-05-09T07:32:27.337Z,39.75
2018-05-09T07:34:58.693Z,39.72
2018-05-09T07:37:30.112Z,39.63
2018-05-09T07:40:10.330Z,39.54
2018-05-09T07:42:41.697Z,39.30
2018-05-09T07:45:15.320Z,39.21
2018-05-09T07:47:47.956Z,39.19
2018-05-09T07:50:19.724Z,38.97
2018-05-09T07:52:51.808Z,38.77
2018-05-09T07:55:23.067Z,38.72
2018-05-09T07:57:55.581Z,39.02
2018-05-09T08:00:27.841Z,39.12
2018-05-09T08:02:59.237Z,39.22
2018-05-09T08:05:30.628Z,39.24
2018-05-09T08:08:02.092Z,39.30
2018-05-09T08:10:33.104Z,39.38
2018-05-09T08:13:05.393Z,39.15
2018-05-09T08:15:37.019Z,39.00
2018-05-09T08:18:08.432Z,38.97
2018-05-09T08:20:39.964Z,39.02
2018-05-09T08:23:10.474Z,38.86
2018-05-09T08:25:41.914Z,38.92
2018-05-09T08:28:13.785Z,38.95
2018-05-09T08:30:45.485Z,39.14
2018-05-09T08:33:17.834Z,39.19
2018-05-09T08:35:50.117Z,39.19
2018-05-09T08:38:21.526Z,39.33
2018-05-09T08:40:53.800Z,39.45
2018-05-09T08:43:26.111Z,39.30
2018-05-09T08:45:57.908Z,39.21
2018-05-09T08:48:28.395Z,39.31
2018-05-09T08:50:59.932Z,39.34
2018-05-09T08:53:32.290Z,39.37
2018-05-09T08:56:03.834Z,39.45
2018-05-09T08:58:35.234Z,39.49
2018-05-09T09:01:08.004Z,39.67
2018-05-09T09:03:39.710Z,39.76
2018-05-09T09:06:11.187Z,39.86
2018-05-09T09:08:42.630Z,40.04
2018-05-09T09:11:14.735Z,40.18
2018-05-09T09:13:46.171Z,40.35
2018-05-09T09:16:18.088Z,40.52
2018-05-09T09:18:49.579Z,40.84
2018-05-09T09:21:20.620Z,41.12
2018-05-09T09:23:52.850Z,41.34
2018-05-09T09:26:26.294Z,41.53
2018-05-09T09:29:00.219Z,41.50
2018-05-09T09:31:32.735Z,41.65
2018-05-09T09:34:04.932Z,41.92
2018-05-09T09:36:36.299Z,42.00
2018-05-09T09:39:08.672Z,42.15
2018-05-09T09:41:40.071Z,42.17
2018-05-09T09:44:12.768Z,42.08
2018-05-09T09:46:45.151Z,42.03
2018-05-09T09:49:16.648Z,42.07
2018-05-09T09:51:47.957Z,42.06
2018-05-09T09:54:19.348Z,42.01
2018-05-09T09:56:49.851Z,41.94
2018-05-09T09:59:21.454Z,41.87
2018-05-09T10:01:52.790Z,41.88
2018-05-09T10:04:29.093Z,42.06
2018-05-09T10:07:06.269Z,42.15
2018-05-09T10:09:42.737Z,42.21
2018-05-09T10:12:16.099Z,42.18
2018-05-09T10:14:47.707Z,42.38
2018-05-09T10:17:19.215Z,42.53
2018-05-09T10:19:56.920Z,42.58
2018-05-09T10:22:28.881Z,42.75
2018-05-09T10:25:00.236Z,43.00
2018-05-09T10:27:32.454Z,43.10
2018-05-09T10:30:08.088Z,42.78
2018-05-09T10:32:39.443Z,42.65
2018-05-09T10:35:11.296Z,42.77
2018-05-09T10:37:43.605Z,43.01
2018-05-09T10:40:15.859Z,43.30
2018-05-09T10:42:47.217Z,43.52
2018-05-09T10:45:19.356Z,43.41
2018-05-09T10:47:50.808Z,43.17
2018-05-09T10:50:22.866Z,42.88
2018-05-09T10:52:54.374Z,42.68
2018-05-09T10:55:25.762Z,42.61
2018-05-09T10:57:57.205Z,42.75
2018-05-09T11:00:28.910Z,42.92
2018-05-09T11:03:00.247Z,42.84
2018-05-09T11:05:33.178Z,42.89
2018-05-09T11:10:42.855Z,42.69
2018-05-09T11:13:14.723Z,42.90
2018-05-09T11:15:46.196Z,42.98
2018-05-09T11:18:17.586Z,43.21
2018-05-09T11:20:48.907Z,43.52
2018-05-09T11:23:21.566Z,43.61
2018-05-09T11:25:52.925Z,43.65
2018-05-09T11:28:24.863Z,43.66
2018-05-09T11:30:56.895Z,43.62
2018-05-09T11:33:28.285Z,43.69
2018-05-09T11:36:00.510Z,43.45
2018-05-09T11:38:33.760Z,43.57
2018-05-09T11:41:06.418Z,43.62
2018-05-09T11:43:38.843Z,43.47
2018-05-09T11:46:10.949Z,43.10
2018-05-09T11:48:43.232Z,42.75
2018-05-09T11:51:14.987Z,42.40
2018-05-09T11:53:46.432Z,42.39
2018-05-09T11:56:18.199Z,42.53
2018-05-09T11:58:54.367Z,42.68
2018-05-09T12:01:24.912Z,42.52
2018-05-09T12:03:55.511Z,42.27
2018-05-09T12:06:28.786Z,41.97
2018-05-09T12:09:00.125Z,41.98
2018-05-09T12:11:34.720Z,42.25
2018-05-09T12:14:05.201Z,42.60
2018-05-09T12:16:37.670Z,42.88
2018-05-09T12:19:09.394Z,43.21
2018-05-09T12:21:41.839Z,43.41
2018-05-09T12:24:13.263Z,43.35
2018-05-09T12:26:46.441Z,43.25
2018-05-09T12:29:20.120Z,42.94
2018-05-09T12:31:52.451Z,43.05
2018-05-09T12:34:30.427Z,43.08
2018-05-09T12:37:02.735Z,42.82
2018-05-09T12:39:33.522Z,42.59
2018-05-09T12:42:04.928Z,42.49
2018-05-09T12:44:36.328Z,42.50
2018-05-09T12:47:09.055Z,42.65
2018-05-09T12:49:40.446Z,42.67
2018-05-09T12:52:12.684Z,42.78
2018-05-09T12:54:45.023Z,42.91
2018-05-09T12:57:16.449Z,43.16
2018-05-09T12:59:48.220Z,43.54
2018-05-09T13:02:21.455Z,43.79
2018-05-09T13:05:00.595Z,43.91
2018-05-09T13:07:32.279Z,43.59
2018-05-09T13:10:03.812Z,43.67
2018-05-09T13:12:36.247Z,43.80
2018-05-09T13:15:07.951Z,44.11
2018-05-09T13:17:39.534Z,44.34
2018-05-09T13:20:10.893Z,44.41
2018-05-09T13:22:43.177Z,44.21
2018-05-09T13:25:14.638Z,44.28
2018-05-09T13:27:46.386Z,44.66
2018-05-09T13:30:17.852Z,45.16
2018-05-09T13:32:49.170Z,45.66
2018-05-09T13:35:20.850Z,46.19
2018-05-09T13:37:52.616Z,46.45
2018-05-09T13:40:23.951Z,46.57
2018-05-09T13:42:56.293Z,46.97
2018-05-09T13:45:27.719Z,47.09
2018-05-09T13:47:59.437Z,46.72
2018-05-09T13:50:35.211Z,46.20
2018-05-09T13:53:07.534Z,46.01
2018-05-09T13:55:39.418Z,46.07
2018-05-09T13:58:11.129Z,46.36
2018-05-09T14:00:42.604Z,46.63
2018-05-09T14:03:14.186Z,46.46
2018-05-09T14:05:45.830Z,46.22
2018-05-09T14:08:20.062Z,45.87
2018-05-09T14:10:52.461Z,44.80
2018-05-09T14:13:24.693Z,43.41
2018-05-09T14:15:56.527Z,42.16
2018-05-09T14:18:32.940Z,41.16
2018-05-09T14:21:04.471Z,40.54
2018-05-09T14:23:37.055Z,40.10
2018-05-09T14:26:08.498Z,39.70
2018-05-09T14:28:38.915Z,39.29
2018-05-09T14:31:11.238Z,38.96
2018-05-09T14:33:41.844Z,38.70
2018-05-09T14:36:12.973Z,38.53
2018-05-09T14:38:43.441Z,38.44
2018-05-09T14:41:16.900Z,38.16
2018-05-09T14:43:50.449Z,37.91
2018-05-09T14:46:21.208Z,37.75
2018-05-09T14:48:54.552Z,37.69
2018-05-09T14:51:25.115Z,37.73
2018-05-09T14:53:57.411Z,37.83
2018-05-09T14:56:28.996Z,38.03
2018-05-09T14:58:59.915Z,38.18
2018-05-09T15:01:31.646Z,38.36
2018-05-09T15:04:02.367Z,38.54
2018-05-09T15:06:34.612Z,38.69
2018-05-09T15:09:05.697Z,38.80
2018-05-09T15:11:36.493Z,39.21
2018-05-09T15:14:08.996Z,39.77
2018-05-09T15:16:39.483Z,40.36
2018-05-09T15:19:11.487Z,41.05
2018-05-09T15:21:43.842Z,41.81
2018-05-09T15:24:15.483Z,42.62
2018-05-09T15:26:48.126Z,43.38
2018-05-09T15:29:19.801Z,44.00
2018-05-09T15:31:53.395Z,44.52
2018-05-09T15:34:23.922Z,45.00
2018-05-09T15:36:55.332Z,45.46
2018-05-09T15:39:26.743Z,45.88
2018-05-09T15:41:59.122Z,46.25
2018-05-09T15:44:30.923Z,46.65
2018-05-09T15:47:02.362Z,47.10
2018-05-09T15:49:33.819Z,47.43
2018-05-09T15:52:07.091Z,47.78
2018-05-09T15:54:39.375Z,48.09
2018-05-09T15:57:11.045Z,48.32
2018-05-09T15:59:42.576Z,48.52
2018-05-09T16:02:13.834Z,48.72
2018-05-09T16:04:45.343Z,48.79
2018-05-09T16:07:16.736Z,48.88
2018-05-09T16:09:48.934Z,49.04
2018-05-09T16:12:27.158Z,49.15
2018-05-09T16:14:58.663Z,49.21
2018-05-09T16:17:30.536Z,49.17
2018-05-09T16:20:01.850Z,49.14
2018-05-09T16:22:33.428Z,48.97
2018-05-09T16:25:04.949Z,49.02
2018-05-09T16:27:36.480Z,49.13
2018-05-09T16:30:08.086Z,49.15
2018-05-09T16:32:40.398Z,49.24
2018-05-09T16:35:11.894Z,49.51
2018-05-09T16:37:44.368Z,49.71
2018-05-09T16:40:15.850Z,49.80
2018-05-09T16:42:47.228Z,49.95
2018-05-09T16:45:18.652Z,50.06
2018-05-09T16:50:57.050Z,49.73
2018-05-09T16:53:28.696Z,49.78
2018-05-09T16:56:01.181Z,49.80
2018-05-09T16:58:33.172Z,49.56
2018-05-09T17:01:04.641Z,49.23
2018-05-09T17:03:36.070Z,48.67
2018-05-09T17:06:10.183Z,48.02
2018-05-09T17:08:42.511Z,47.32
2018-05-09T17:11:15.236Z,46.68
2018-05-09T17:13:46.736Z,46.04
2018-05-09T17:16:19.011Z,45.46
2018-05-09T17:18:51.026Z,45.16
2018-05-09T17:21:35.077Z,45.17
2018-05-09T17:24:06.585Z,45.47
2018-05-09T17:26:39.887Z,45.85
2018-05-09T17:29:11.032Z,46.30
2018-05-09T17:31:43.819Z,46.62
2018-05-09T17:34:16.237Z,47.02
2018-05-09T17:36:48.699Z,47.33
2018-05-09T17:39:25.129Z,47.57
2018-05-09T17:41:58.488Z,47.62
2018-05-09T17:44:31.084Z,47.37
2018-05-09T17:47:02.413Z,46.82
2018-05-09T17:49:34.835Z,46.10
2018-05-09T17:52:08.808Z,45.37
2018-05-09T17:54:40.126Z,44.67
2018-05-09T17:57:12.342Z,44.06
2018-05-09T17:59:43.655Z,43.54
2018-05-09T18:02:15.091Z,43.03
2018-05-09T18:04:48.318Z,42.59
2018-05-09T18:07:19.716Z,42.20
2018-05-09T18:12:55.499Z,41.54
2018-05-09T18:15:26.828Z,41.23
2018-05-09T18:17:58.337Z,40.98
2018-05-09T18:20:31.281Z,40.78
2018-05-09T18:23:02.422Z,40.53
2018-05-09T18:25:34.000Z,40.23
2018-05-09T18:28:05.482Z,39.99
2018-05-09T18:30:36.598Z,39.79
2018-05-09T18:33:07.993Z,39.62
2018-05-09T18:35:39.527Z,39.49
2018-05-09T18:38:10.960Z,39.34
2018-05-09T18:40:43.684Z,39.18
2018-05-09T18:43:14.845Z,38.99
2018-05-09T18:45:46.272Z,38.80
2018-05-09T18:48:18.022Z,38.59
2018-05-09T18:50:50.084Z,38.33
2018-05-09T18:53:22.426Z,38.03
2018-05-09T18:55:54.986Z,37.81
2018-05-09T18:58:26.351Z,37.54
2018-05-09T19:00:58.795Z,37.15
2018-05-09T19:03:30.575Z,36.77
2018-05-09T19:06:02.130Z,36.44
2018-05-09T19:08:34.755Z,36.27
2018-05-09T19:11:07.099Z,36.10
2018-05-09T19:13:38.166Z,35.91
2018-05-09T19:16:08.779Z,35.67
2018-05-09T19:18:39.922Z,35.62
2018-05-09T19:21:12.519Z,35.67
2018-05-09T19:23:44.578Z,35.52
2018-05-09T19:26:17.750Z,35.36
2018-05-09T19:28:50.613Z,35.23
2018-05-09T19:31:22.002Z,35.14
2018-05-09T19:33:52.273Z,34.94
2018-05-09T19:36:25.148Z,34.67
2018-05-09T19:38:57.684Z,34.46
2018-05-09T19:41:29.960Z,34.45
2018-05-09T19:44:02.815Z,34.38
2018-05-09T19:46:33.263Z,34.23
2018-05-09T19:49:03.782Z,34.00
2018-05-09T19:51:34.678Z,33.65
2018-05-09T19:54:04.945Z,33.62
2018-05-09T19:56:36.262Z,33.66
2018-05-09T19:59:06.781Z,33.62
2018-05-09T20:01:37.126Z,33.61
2018-05-09T20:04:07.527Z,33.56
2018-05-09T20:06:40.019Z,33.52
2018-05-09T20:09:10.577Z,33.50
2018-05-09T20:11:41.064Z,33.37
2018-05-09T20:14:12.877Z,33.20
2018-05-09T20:16:43.358Z,33.11
2018-05-09T20:19:13.570Z,32.86
2018-05-09T20:21:44.642Z,32.89
2018-05-09T20:24:16.037Z,33.07
2018-05-09T20:26:47.740Z,33.18
2018-05-09T20:29:19.846Z,33.27
2018-05-09T20:32:01.854Z,33.36
2018-05-09T20:34:33.906Z,33.31
2018-05-09T20:37:05.913Z,33.30
2018-05-09T20:39:38.678Z,33.28
2018-05-09T20:42:10.284Z,33.17
2018-05-09T20:44:41.085Z,33.09
2018-05-09T20:47:11.960Z,33.06
2018-05-09T20:49:44.323Z,33.09
2018-05-09T20:52:15.561Z,33.11
2018-05-09T20:54:51.775Z,33.15
2018-05-09T20:57:24.058Z,33.21
2018-05-09T20:59:54.686Z,33.21
2018-05-09T21:02:24.974Z,33.25
2018-05-09T21:04:55.199Z,33.21
2018-05-09T21:07:26.998Z,33.19
2018-05-09T21:09:57.254Z,33.16
2018-05-09T21:12:27.766Z,33.19
2018-05-09T21:14:59.009Z,33.20
2018-05-09T21:17:29.470Z,33.20
2018-05-09T21:20:01.523Z,33.22
2018-05-09T21:22:32.058Z,33.26
2018-05-09T21:25:04.172Z,33.29
2018-05-09T21:27:34.576Z,33.32
2018-05-09T21:30:06.027Z,33.27
2018-05-09T21:32:36.365Z,33.21
2018-05-09T21:35:11.483Z,33.17
2018-05-09T21:37:43.389Z,33.08
2018-05-09T21:40:13.813Z,32.97
2018-05-09T21:42:45.290Z,32.90
2018-05-09T21:45:16.675Z,32.87
2018-05-09T21:47:47.110Z,32.84
2018-05-09T21:50:19.767Z,32.82
2018-05-09T21:52:51.676Z,32.83
2018-05-09T21:55:23.705Z,32.87
2018-05-09T21:57:54.189Z,32.90
2018-05-09T22:00:25.281Z,33.00
2018-05-09T22:02:56.376Z,33.05
2018-05-09T22:05:28.381Z,33.03
2018-05-09T22:07:58.763Z,32.92
2018-05-09T22:10:29.334Z,33.06
2018-05-09T22:13:00.664Z,33.17
2018-05-09T22:15:33.078Z,33.21
2018-05-09T22:18:03.665Z,33.34
2018-05-09T22:20:34.213Z,33.36
2018-05-09T22:23:05.962Z,33.40
2018-05-09T22:25:38.450Z,33.46
2018-05-09T22:28:08.654Z,33.47
2018-05-09T22:30:40.129Z,33.42
2018-05-09T22:33:11.457Z,33.37
2018-05-09T22:35:42.739Z,33.43
2018-05-09T22:38:15.051Z,33.41
2018-05-09T22:40:45.290Z,33.37
2018-05-09T22:43:17.487Z,33.27
2018-05-09T22:45:49.725Z,33.15
2018-05-09T22:48:20.323Z,33.00
2018-05-09T22:50:52.346Z,32.89
2018-05-09T22:53:23.474Z,32.87
2018-05-09T22:55:56.103Z,32.91
2018-05-09T22:58:26.309Z,32.94
2018-05-09T23:00:59.118Z,32.88
2018-05-09T23:03:31.590Z,32.84
2018-05-09T23:06:03.089Z,32.70
2018-05-09T23:08:34.505Z,32.92
2018-05-09T23:11:05.871Z,33.12
2018-05-09T23:13:36.641Z,33.21
2018-05-09T23:16:10.446Z,33.10
2018-05-09T23:18:42.773Z,32.94
2018-05-09T23:21:14.793Z,33.00
2018-05-09T23:23:45.784Z,33.03
2018-05-09T23:26:18.689Z,33.10
2018-05-09T23:28:49.530Z,33.04
2018-05-09T23:31:22.703Z,33.05
2018-05-09T23:33:54.183Z,33.18
2018-05-09T23:36:25.690Z,33.33
2018-05-09T23:38:58.381Z,33.49
2018-05-09T23:41:29.724Z,33.58
2018-05-09T23:44:01.750Z,33.68
2018-05-09T23:46:33.282Z,33.74
2018-05-09T23:49:05.573Z,33.72
2018-05-09T23:51:36.317Z,33.62
2018-05-09T23:54:07.737Z,33.44
2018-05-09T23:56:38.320Z,33.28
2018-05-09T23:59:10.910Z,33.20
